Aérodrome :
LOGIN :

S'inscrire | Disclaimer

   EN    FR    IT 

 










Légende :    VFR   VFR Marginal   IFR   IFR Intensif   IFR Très Intensif
Visi : 
Plafond : 
>= 8 km
>= 3000ft
5 à 8 km
1000 à 3000 ft
1500m à 5 km
500 à 1000 ft
800 à 1500m
200 à 500 ft
< 800m
< 200 ft
Symboles :   Orages  Brouillard  Fortes neiges  Fortes précipitations  Vent > 20 kt
SIGMETs :   Divers  Orages  Givrage  Turbulence  Onde Orograph.  Cendres Volcan.






- Altitude de l'aérodrome : 235 ft
- Code IATA : BZG


EPBY - Bydgoszcz

DERNIER METAR :
  • 151530Z 22010KT 9999 FEW015 05/04 Q1000

METARs EXPIRÉS :
  • 151500Z 22011KT 9999 FEW012 05/04 Q1000
  • 151430Z 20011KT 190V250 9999 FEW011 BKN016 06/04 Q1000
  • 151400Z 20011KT 9999 FEW011 BKN022 05/04 Q0999
  • 151330Z 21013KT 9999 -RA FEW016 BKN030 05/04 Q1000
  • 151300Z 22011KT 180V250 8000 -RA FEW014 SCT017 BKN020 05/03 Q1000

TAF TAF EPBY
Valide du 15 à 12h jusqu'au 16 à 12h UTC


151130Z 1512/1612 17010KT 9999 SCT040
BECMG 1512/1515 23012KT
TEMPO 1512/1518 RA BKN012
PROB40
TEMPO 1512/1518 24016G28KT 4000 SHRA BKN020CB
PROB40
TEMPO 1518/1524 24015G25KT



MET'MAP, la Météo Aéronautique d'un coup d'oeil ! - Copyright ORBIFLY Décembre 2007 - Disclaimer

ORBIFLY MET'MAP TEAM :

Programmation & Développement : Alexandra Zaïnal
Sur une idée originale de : Baudouin d'Aumeries
Assistance à la programmation : Marc-Olivier Méhu
Soutien technique & logistique : Manuel Goepfert

Contact : metmap@orbifly.com




SOURCES & CREDITS :

   NOAA